Time;durP1;ratioP1;P1;durP2;ratioP2;P2;SDS_P1;SDS_P2;PMS_P1;PMS_P2;Temp;Humidity;BMP_temperature;BMP_pressure;BME280_temperature;BME280_humidity;BME280_pressure;Samples;Min_cycle;Max_cycle;Signal;HPM_P1;HPM_P2
2022/07/08 00:00:13;;;;;;;2.77;1.43;;;17.70;99.90;;;;;;5085848;28;20644;-80
2022/07/08 00:02:40;;;;;;;6.43;1.87;;;17.70;99.90;;;;;;5085560;28;20616;-79
2022/07/08 00:05:08;;;;;;;3.00;1.50;;;17.70;99.90;;;;;;5085161;28;20655;-80
2022/07/08 00:07:34;;;;;;;4.27;1.67;;;17.60;99.90;;;;;;5088272;28;20676;-80
2022/07/08 00:10:01;;;;;;;3.23;1.50;;;17.70;99.90;;;;;;5087580;28;20660;-80
2022/07/08 00:12:28;;;;;;;3.97;2.10;;;17.70;99.90;;;;;;5088580;28;20731;-80
2022/07/08 00:14:55;;;;;;;5.30;1.60;;;17.60;99.90;;;;;;5087393;28;20660;-80
2022/07/08 00:17:23;;;;;;;2.97;1.37;;;17.60;99.90;;;;;;5087703;28;21183;-80
2022/07/08 00:19:50;;;;;;;8.13;1.70;;;17.60;99.90;;;;;;5087542;28;20742;-81
2022/07/08 00:22:17;;;;;;;4.67;2.13;;;17.50;99.90;;;;;;5087723;28;20632;-82
2022/07/08 00:24:44;;;;;;;3.00;1.80;;;17.50;99.90;;;;;;5087615;28;20635;-80
2022/07/08 00:27:11;;;;;;;3.83;1.77;;;17.40;99.90;;;;;;5086117;28;20635;-80
2022/07/08 00:29:38;;;;;;;3.03;1.67;;;17.40;99.90;;;;;;5086825;28;20663;-81
2022/07/08 00:32:05;;;;;;;5.63;2.10;;;17.30;99.90;;;;;;5084845;28;20628;-80
2022/07/08 00:34:34;;;;;;;4.73;1.93;;;17.40;99.90;;;;;;5086917;28;20662;-80
2022/07/08 00:37:01;;;;;;;3.07;2.07;;;17.30;99.90;;;;;;5087247;28;20631;-80
2022/07/08 00:39:28;;;;;;;3.80;1.77;;;17.30;99.90;;;;;;5084448;28;20625;-80
2022/07/08 00:41:55;;;;;;;3.13;2.03;;;17.30;99.90;;;;;;5087451;28;20989;-80
2022/07/08 00:44:21;;;;;;;5.17;1.70;;;17.30;99.90;;;;;;5087689;28;20635;-80
2022/07/08 00:46:48;;;;;;;4.27;1.63;;;17.20;99.90;;;;;;5089086;28;20628;-80
2022/07/08 00:49:15;;;;;;;3.00;1.70;;;17.20;99.90;;;;;;5085802;28;20632;-80
2022/07/08 00:51:44;;;;;;;5.73;2.00;;;17.10;99.90;;;;;;5083719;28;20628;-80
2022/07/08 00:54:15;;;;;;;5.27;2.17;;;17.20;99.90;;;;;;5084560;28;20721;-80
2022/07/08 00:56:42;;;;;;;5.57;1.80;;;17.10;99.90;;;;;;5088242;28;20668;-80
2022/07/08 00:59:09;;;;;;;4.97;2.13;;;17.10;99.90;;;;;;5084205;28;20643;-80
2022/07/08 01:01:36;;;;;;;9.50;2.37;;;17.00;99.90;;;;;;5086536;28;20632;-80
2022/07/08 01:04:03;;;;;;;8.00;2.90;;;17.00;99.90;;;;;;5082987;28;20628;-79
2022/07/08 01:06:30;;;;;;;6.87;2.53;;;16.80;99.90;;;;;;5082661;28;20627;-80
2022/07/08 01:08:58;;;;;;;8.30;3.10;;;16.80;99.90;;;;;;5087015;28;20639;-80
2022/07/08 01:11:26;;;;;;;6.27;2.57;;;16.70;99.90;;;;;;5086783;28;20662;-81
2022/07/08 01:13:53;;;;;;;9.57;2.87;;;16.70;99.90;;;;;;5086713;28;20624;-81
2022/07/08 01:16:20;;;;;;;7.03;2.80;;;16.70;99.90;;;;;;5084690;28;20635;-81
2022/07/08 01:18:47;;;;;;;7.50;2.83;;;16.60;99.90;;;;;;5082002;28;20631;-81
2022/07/08 01:21:15;;;;;;;5.07;2.40;;;16.60;99.90;;;;;;5086281;28;20652;-81
2022/07/08 01:23:42;;;;;;;5.50;2.60;;;16.50;99.90;;;;;;5086282;28;20624;-81
2022/07/08 01:26:11;;;;;;;5.43;2.90;;;16.50;99.90;;;;;;5086278;28;20635;-81
2022/07/08 01:28:40;;;;;;;3.20;2.50;;;16.40;99.90;;;;;;5087289;28;20639;-81
2022/07/08 01:31:07;;;;;;;5.50;2.53;;;16.40;99.90;;;;;;5080422;28;20706;-81
2022/07/08 01:33:34;;;;;;;5.50;3.17;;;16.30;99.90;;;;;;5086715;28;20643;-81
2022/07/08 01:36:01;;;;;;;9.57;2.60;;;16.30;99.90;;;;;;5084420;28;20759;-79
2022/07/08 01:38:29;;;;;;;7.10;2.97;;;16.20;99.90;;;;;;5086744;28;21197;-81
2022/07/08 01:40:56;;;;;;;5.67;3.00;;;16.20;99.90;;;;;;5084964;28;21010;-81
2022/07/08 01:43:23;;;;;;;7.93;2.90;;;16.10;99.90;;;;;;5085751;28;20628;-79
2022/07/08 01:45:50;;;;;;;6.57;3.00;;;16.00;99.90;;;;;;5086829;28;21124;-80
2022/07/08 01:48:16;;;;;;;8.67;3.23;;;16.00;99.90;;;;;;5085088;28;20639;-80
2022/07/08 01:50:43;;;;;;;8.43;2.97;;;15.90;99.90;;;;;;5085421;28;21081;-81
2022/07/08 01:53:11;;;;;;;5.17;2.30;;;15.90;99.90;;;;;;5085906;28;20654;-80
2022/07/08 01:55:40;;;;;;;4.07;2.43;;;15.80;99.90;;;;;;5086692;28;21290;-79
2022/07/08 01:58:06;;;;;;;6.77;2.77;;;15.80;99.90;;;;;;5083122;28;21198;-80
2022/07/08 02:00:33;;;;;;;6.63;2.77;;;15.80;99.90;;;;;;5085407;28;20652;-80
2022/07/08 02:03:00;;;;;;;4.53;2.60;;;15.70;99.90;;;;;;5086066;28;20635;-80
2022/07/08 02:05:27;;;;;;;6.23;3.20;;;15.70;99.90;;;;;;5085085;28;20628;-80
2022/07/08 02:07:55;;;;;;;6.17;3.07;;;15.60;99.90;;;;;;5086211;28;20632;-80
2022/07/08 02:10:22;;;;;;;9.47;2.83;;;15.50;99.90;;;;;;5085320;28;20660;-79
2022/07/08 02:12:49;;;;;;;6.60;2.57;;;15.50;99.90;;;;;;5086633;28;20620;-79
2022/07/08 02:15:15;;;;;;;6.23;2.73;;;15.40;99.90;;;;;;5085176;28;20664;-80
2022/07/08 02:17:43;;;;;;;4.37;2.67;;;15.40;99.90;;;;;;5090766;28;20624;-80
2022/07/08 02:20:12;;;;;;;9.20;2.70;;;15.30;99.90;;;;;;5085599;28;20652;-80
2022/07/08 02:22:40;;;;;;;3.77;2.07;;;15.20;99.90;;;;;;5085170;28;20624;-80
2022/07/08 02:25:08;;;;;;;6.47;2.50;;;15.20;99.90;;;;;;5081127;28;20628;-80
2022/07/08 02:27:35;;;;;;;6.47;3.07;;;15.10;99.90;;;;;;5082767;28;20634;-80
2022/07/08 02:30:04;;;;;;;6.17;2.60;;;15.10;99.90;;;;;;5082559;28;20674;-80
2022/07/08 02:32:30;;;;;;;5.13;2.47;;;15.10;99.90;;;;;;5081128;28;20635;-80
2022/07/08 02:34:58;;;;;;;6.63;2.70;;;15.00;99.90;;;;;;5085471;28;20683;-80
2022/07/08 02:37:24;;;;;;;6.63;2.70;;;14.90;99.90;;;;;;5084743;28;21170;-80
2022/07/08 02:39:51;;;;;;;6.90;2.27;;;14.90;99.90;;;;;;5086635;28;20663;-80
2022/07/08 02:42:18;;;;;;;6.70;2.77;;;14.90;99.90;;;;;;5085784;28;20632;-80
2022/07/08 02:44:45;;;;;;;5.10;2.87;;;14.80;99.90;;;;;;5085353;28;20956;-80
2022/07/08 02:47:13;;;;;;;3.77;2.50;;;14.80;99.90;;;;;;5079302;28;20636;-80
2022/07/08 02:49:40;;;;;;;5.17;2.73;;;14.70;99.90;;;;;;5083445;28;20660;-80
2022/07/08 02:52:07;;;;;;;5.87;2.50;;;14.70;99.90;;;;;;5078195;28;21067;-79
2022/07/08 02:54:34;;;;;;;4.43;2.33;;;14.70;99.90;;;;;;5082901;28;20664;-80
2022/07/08 02:57:01;;;;;;;5.40;2.70;;;14.60;99.90;;;;;;5084088;28;20639;-80
2022/07/08 02:59:28;;;;;;;5.37;2.67;;;14.60;99.90;;;;;;5086142;28;20676;-80
2022/07/08 03:01:54;;;;;;;4.87;2.60;;;14.60;99.90;;;;;;5082994;28;20636;-79
2022/07/08 03:04:23;;;;;;;6.27;2.77;;;14.50;99.90;;;;;;5084981;28;20659;-80
2022/07/08 03:06:50;;;;;;;7.90;3.60;;;14.50;99.90;;;;;;5085363;28;21174;-80
2022/07/08 03:09:16;;;;;;;3.83;2.00;;;14.50;99.90;;;;;;5084483;28;20624;-79
2022/07/08 03:11:43;;;;;;;3.83;2.23;;;14.50;99.90;;;;;;5086385;28;20647;-80
2022/07/08 03:14:10;;;;;;;8.63;2.93;;;14.50;99.90;;;;;;5084120;28;20628;-80
2022/07/08 03:16:37;;;;;;;4.80;2.70;;;14.60;99.90;;;;;;5086874;28;20699;-80
2022/07/08 03:19:04;;;;;;;4.20;2.57;;;14.60;99.90;;;;;;5088472;28;20628;-79
2022/07/08 03:21:32;;;;;;;6.77;3.47;;;14.60;99.90;;;;;;5085120;28;20722;-79
2022/07/08 03:23:59;;;;;;;4.03;2.37;;;14.60;99.90;;;;;;5088994;28;20628;-79
2022/07/08 03:26:25;;;;;;;6.10;2.30;;;14.60;99.90;;;;;;5088079;28;20620;-79
2022/07/08 03:28:52;;;;;;;4.80;2.40;;;14.60;99.90;;;;;;5088142;28;21150;-80
2022/07/08 03:31:19;;;;;;;6.50;3.43;;;14.50;99.90;;;;;;5087163;28;20659;-79
2022/07/08 03:33:46;;;;;;;5.90;2.43;;;14.50;99.90;;;;;;5088784;28;20624;-80
2022/07/08 03:36:13;;;;;;;7.30;3.13;;;14.50;99.90;;;;;;5087453;28;20651;-80
2022/07/08 03:38:41;;;;;;;5.87;2.60;;;14.50;99.90;;;;;;5087410;28;20666;-81
2022/07/08 03:41:24;;;;;;;6.90;2.77;;;14.50;99.90;;;;;;5086819;28;20674;-80
2022/07/08 03:43:52;;;;;;;5.90;2.30;;;14.50;99.90;;;;;;5084166;28;21245;-80
2022/07/08 03:46:20;;;;;;;4.60;2.07;;;14.50;99.90;;;;;;5083718;28;20966;-80
2022/07/08 03:48:47;;;;;;;6.83;2.27;;;14.50;99.90;;;;;;5087401;28;20635;-80
2022/07/08 03:51:15;;;;;;;5.37;2.10;;;14.50;99.90;;;;;;5087159;28;20667;-80
2022/07/08 03:53:44;;;;;;;6.20;2.10;;;14.40;99.90;;;;;;5087178;28;20635;-80
2022/07/08 03:56:12;;;;;;;7.40;3.23;;;14.40;99.90;;;;;;5087616;28;20667;-80
2022/07/08 03:58:39;;;;;;;4.07;2.20;;;14.40;99.90;;;;;;5087569;28;20624;-81
2022/07/08 04:01:06;;;;;;;4.07;2.10;;;14.40;99.90;;;;;;5084511;28;20652;-80
2022/07/08 04:03:33;;;;;;;9.73;3.10;;;14.30;99.90;;;;;;5087362;28;20707;-80
2022/07/08 04:06:00;;;;;;;2.83;1.93;;;14.30;99.90;;;;;;5086759;28;20636;-80
2022/07/08 04:08:26;;;;;;;6.10;2.33;;;14.30;99.90;;;;;;5086243;28;20616;-80
2022/07/08 04:10:55;;;;;;;6.53;2.20;;;14.30;99.90;;;;;;5086968;28;20652;-80
2022/07/08 04:13:23;;;;;;;6.00;1.90;;;14.30;99.90;;;;;;5087287;28;20701;-79
2022/07/08 04:15:50;;;;;;;7.40;2.03;;;14.30;99.90;;;;;;5087270;28;20752;-80
2022/07/08 04:18:17;;;;;;;4.53;2.83;;;14.20;99.90;;;;;;5086638;28;20628;-79
2022/07/08 04:20:44;;;;;;;8.00;2.70;;;14.30;99.90;;;;;;5084055;28;20998;-80
2022/07/08 04:23:10;;;;;;;5.83;2.10;;;14.30;99.90;;;;;;5093703;28;20635;-80
2022/07/08 04:25:37;;;;;;;6.17;2.40;;;14.30;99.90;;;;;;5087376;28;20681;-79
2022/07/08 04:28:06;;;;;;;4.47;2.00;;;14.30;99.90;;;;;;5087280;28;21004;-80
2022/07/08 04:30:33;;;;;;;9.73;2.67;;;14.30;99.90;;;;;;5082735;28;20659;-80
2022/07/08 04:32:59;;;;;;;4.17;2.33;;;14.30;99.90;;;;;;5086553;28;20655;-80
2022/07/08 04:35:26;;;;;;;5.30;2.17;;;14.40;99.90;;;;;;5085512;28;20755;-80
2022/07/08 04:37:53;;;;;;;3.63;2.03;;;14.40;99.90;;;;;;5087525;28;21268;-80
2022/07/08 04:40:20;;;;;;;6.87;2.40;;;14.40;99.90;;;;;;5082870;28;20682;-80
2022/07/08 04:42:47;;;;;;;4.73;2.37;;;14.50;99.90;;;;;;5086754;28;20628;-80
2022/07/08 04:45:15;;;;;;;4.10;2.43;;;14.40;99.90;;;;;;5082852;28;20631;-80
2022/07/08 04:47:42;;;;;;;4.90;2.53;;;14.50;99.90;;;;;;5086446;28;20628;-80
2022/07/08 04:50:09;;;;;;;6.90;2.20;;;14.50;99.90;;;;;;5086328;28;20656;-80
2022/07/08 04:52:35;;;;;;;5.07;2.27;;;14.40;99.90;;;;;;5087618;28;20660;-80
2022/07/08 04:55:02;;;;;;;4.10;2.53;;;14.40;99.90;;;;;;5086840;28;20659;-80
2022/07/08 04:57:32;;;;;;;8.03;2.50;;;14.30;99.90;;;;;;5081990;28;21004;-80
2022/07/08 04:59:59;;;;;;;5.20;2.30;;;14.30;99.90;;;;;;5083280;28;20667;-80
2022/07/08 05:02:27;;;;;;;3.03;1.93;;;14.30;99.90;;;;;;5085283;28;20624;-80
2022/07/08 05:04:54;;;;;;;6.13;2.30;;;14.30;99.90;;;;;;5084907;28;20627;-81
2022/07/08 05:07:21;;;;;;;5.53;2.53;;;14.30;99.90;;;;;;5085891;28;20638;-80
2022/07/08 05:09:48;;;;;;;4.47;2.00;;;14.30;99.90;;;;;;5084446;28;20659;-81
2022/07/08 05:12:15;;;;;;;5.60;2.30;;;14.40;99.90;;;;;;5086266;28;21000;-80
2022/07/08 05:14:42;;;;;;;6.10;2.03;;;14.50;99.90;;;;;;5083000;28;20637;-80
2022/07/08 05:17:08;;;;;;;6.73;2.60;;;14.60;99.90;;;;;;5085571;28;20668;-80
2022/07/08 05:19:37;;;;;;;8.70;3.07;;;14.70;99.90;;;;;;5082336;28;20708;-80
2022/07/08 05:22:04;;;;;;;5.70;2.37;;;14.80;99.90;;;;;;5079874;28;20624;-80
2022/07/08 05:24:31;;;;;;;8.53;2.43;;;14.80;99.90;;;;;;5082740;28;21194;-80
2022/07/08 05:26:58;;;;;;;5.40;2.60;;;14.80;99.90;;;;;;5085788;28;20623;-80
2022/07/08 05:29:24;;;;;;;8.90;3.50;;;14.90;99.90;;;;;;5085286;28;20637;-80
2022/07/08 05:31:53;;;;;;;7.47;2.30;;;15.00;99.90;;;;;;5085434;28;20616;-80
2022/07/08 05:34:20;;;;;;;5.60;3.20;;;15.10;99.90;;;;;;5084962;28;21209;-80
2022/07/08 05:36:49;;;;;;;6.67;2.50;;;15.10;99.90;;;;;;5080541;28;20663;-80
2022/07/08 05:39:16;;;;;;;7.20;2.97;;;15.20;99.90;;;;;;5085800;28;20659;-80
2022/07/08 05:41:43;;;;;;;5.63;2.87;;;15.20;99.90;;;;;;5083918;28;21633;-80
2022/07/08 05:44:10;;;;;;;5.40;2.30;;;15.30;99.90;;;;;;5084438;28;21002;-81
2022/07/08 05:46:37;;;;;;;5.20;2.43;;;15.40;99.90;;;;;;5082966;28;20641;-81
2022/07/08 05:49:04;;;;;;;7.30;2.17;;;15.40;99.90;;;;;;5085112;28;20635;-81
2022/07/08 05:51:31;;;;;;;9.53;2.33;;;15.60;99.90;;;;;;5080486;28;20651;-80
2022/07/08 05:53:59;;;;;;;4.80;2.47;;;15.60;99.90;;;;;;5084888;28;21018;-79
2022/07/08 05:56:26;;;;;;;7.33;3.10;;;15.70;99.90;;;;;;5082270;28;20652;-80
2022/07/08 05:58:53;;;;;;;6.00;2.43;;;15.70;99.90;;;;;;5086008;28;20639;-80
2022/07/08 06:01:20;;;;;;;7.27;3.00;;;15.80;99.90;;;;;;5083962;28;20658;-79
2022/07/08 06:03:46;;;;;;;7.63;2.80;;;15.80;99.90;;;;;;5085511;28;20621;-80
2022/07/08 06:06:15;;;;;;;7.10;2.70;;;15.90;99.90;;;;;;5084579;28;20625;-80
2022/07/08 06:08:42;;;;;;;6.83;2.80;;;15.90;99.90;;;;;;5079936;28;20652;-80
2022/07/08 06:11:10;;;;;;;6.80;3.10;;;15.90;99.90;;;;;;5085135;28;20647;-80
2022/07/08 06:13:37;;;;;;;4.63;2.73;;;16.00;99.90;;;;;;5084887;28;20620;-80
2022/07/08 06:16:04;;;;;;;7.47;2.40;;;16.00;99.90;;;;;;5084752;28;20652;-80
2022/07/08 06:18:31;;;;;;;5.63;2.73;;;16.00;99.90;;;;;;5081006;28;20635;-80
2022/07/08 06:20:57;;;;;;;7.10;3.23;;;16.10;99.90;;;;;;5081436;28;20674;-80
2022/07/08 06:23:24;;;;;;;7.53;2.83;;;16.10;99.90;;;;;;5085038;28;20625;-80
2022/07/08 06:25:51;;;;;;;7.63;2.80;;;16.20;99.90;;;;;;5084950;28;20628;-79
2022/07/08 06:28:19;;;;;;;4.87;2.30;;;16.40;99.90;;;;;;5084657;28;21209;-80
2022/07/08 06:30:46;;;;;;;6.20;1.97;;;16.60;99.90;;;;;;5084821;28;21138;-79
2022/07/08 06:33:13;;;;;;;4.30;2.07;;;16.70;99.90;;;;;;5084556;28;20625;-80
2022/07/08 06:35:40;;;;;;;10.00;2.60;;;16.80;99.90;;;;;;5082472;28;21304;-80
2022/07/08 06:38:06;;;;;;;5.53;1.97;;;16.90;99.90;;;;;;5081206;28;21374;-79
2022/07/08 06:40:33;;;;;;;6.63;2.23;;;17.00;99.90;;;;;;5084386;28;20682;-81
2022/07/08 06:43:00;;;;;;;6.43;1.90;;;17.10;99.90;;;;;;5085352;28;20706;-81
2022/07/08 06:45:31;;;;;;;5.90;2.07;;;17.10;99.90;;;;;;5081047;28;20628;-80
2022/07/08 06:47:58;;;;;;;8.50;2.40;;;17.10;99.90;;;;;;5086892;28;20727;-81
2022/07/08 06:50:25;;;;;;;4.83;2.20;;;17.20;99.90;;;;;;5088129;28;20663;-81
2022/07/08 06:52:52;;;;;;;5.50;2.47;;;17.30;99.90;;;;;;5086787;28;20628;-81
2022/07/08 06:55:19;;;;;;;6.20;1.60;;;17.40;99.90;;;;;;5085852;28;20628;-80
2022/07/08 06:57:46;;;;;;;5.30;2.27;;;17.50;99.90;;;;;;5088783;28;20668;-80
2022/07/08 07:00:16;;;;;;;8.27;2.33;;;17.60;99.90;;;;;;5084583;28;20658;-81
2022/07/08 07:02:46;;;;;;;3.27;1.60;;;17.80;99.90;;;;;;5086787;28;20618;-81
2022/07/08 07:05:13;;;;;;;6.57;2.27;;;18.00;99.90;;;;;;5088302;28;20624;-80
2022/07/08 07:07:41;;;;;;;4.10;1.70;;;18.20;99.90;;;;;;5086015;28;20670;-81
2022/07/08 07:10:09;;;;;;;3.13;1.57;;;18.30;99.30;;;;;;5087731;28;20686;-81
2022/07/08 07:12:36;;;;;;;3.17;1.70;;;18.30;97.90;;;;;;5088560;28;20638;-81
2022/07/08 07:15:03;;;;;;;3.03;1.30;;;18.30;96.60;;;;;;5084477;28;20628;-81
2022/07/08 07:17:30;;;;;;;3.87;1.60;;;18.20;96.30;;;;;;5084107;28;20672;-81
2022/07/08 07:19:59;;;;;;;5.77;1.43;;;18.20;96.50;;;;;;5087281;28;20658;-81
2022/07/08 07:22:26;;;;;;;4.33;1.80;;;18.20;96.60;;;;;;5086065;28;20685;-81
2022/07/08 07:24:53;;;;;;;3.37;1.53;;;18.40;97.10;;;;;;5083748;28;20632;-81
2022/07/08 07:27:19;;;;;;;3.47;1.60;;;18.50;96.90;;;;;;5088001;28;20635;-80
2022/07/08 07:29:46;;;;;;;5.07;1.50;;;18.60;95.60;;;;;;5086012;28;20670;-80
2022/07/08 07:32:14;;;;;;;3.40;1.27;;;18.70;96.40;;;;;;5088439;28;20643;-81
2022/07/08 07:34:41;;;;;;;2.37;1.27;;;18.90;95.70;;;;;;5084701;28;20632;-80
2022/07/08 07:37:09;;;;;;;4.23;1.50;;;19.10;94.10;;;;;;5087518;28;20676;-81
2022/07/08 07:39:36;;;;;;;5.50;2.00;;;19.30;94.40;;;;;;5088947;28;20651;-81
2022/07/08 07:42:04;;;;;;;3.00;1.70;;;19.30;94.30;;;;;;5084325;28;20635;-81
2022/07/08 07:44:31;;;;;;;6.53;1.47;;;19.40;93.70;;;;;;5083434;28;20630;-80
2022/07/08 07:46:57;;;;;;;4.00;1.20;;;19.40;93.00;;;;;;5086898;28;20620;-81
2022/07/08 07:49:24;;;;;;;2.70;1.30;;;19.40;92.50;;;;;;5086769;28;20636;-81
2022/07/08 07:51:51;;;;;;;5.43;1.50;;;19.40;92.00;;;;;;5088317;28;21005;-80
2022/07/08 07:54:19;;;;;;;4.33;1.50;;;19.40;92.20;;;;;;5085829;28;20646;-81
2022/07/08 07:56:46;;;;;;;2.80;1.50;;;19.40;92.20;;;;;;5087454;28;20664;-81
2022/07/08 07:59:13;;;;;;;6.83;1.30;;;19.30;92.50;;;;;;5086546;28;20703;-80
2022/07/08 08:01:39;;;;;;;5.30;1.27;;;19.30;91.70;;;;;;5087650;28;20624;-81
2022/07/08 08:04:06;;;;;;;5.23;1.57;;;19.20;91.20;;;;;;5083607;28;20632;-81
2022/07/08 08:06:33;;;;;;;4.87;1.53;;;19.20;91.40;;;;;;5087525;28;20616;-81
2022/07/08 08:09:00;;;;;;;2.60;1.60;;;19.30;91.70;;;;;;5087510;28;20618;-80
2022/07/08 08:11:28;;;;;;;3.27;1.20;;;19.40;91.80;;;;;;5085603;28;20662;-81
2022/07/08 08:13:55;;;;;;;1.57;1.00;;;19.30;91.00;;;;;;5086123;28;20648;-80
2022/07/08 08:16:22;;;;;;;3.43;1.17;;;19.30;91.20;;;;;;5084905;28;20655;-80
2022/07/08 08:18:49;;;;;;;3.10;1.20;;;19.30;91.10;;;;;;5087607;27;20682;-80
2022/07/08 08:21:15;;;;;;;6.17;1.67;;;19.30;91.40;;;;;;5087427;28;20667;-80
2022/07/08 08:23:42;;;;;;;2.40;1.03;;;19.30;90.30;;;;;;5086757;28;20627;-80
2022/07/08 08:26:09;;;;;;;5.50;1.67;;;19.10;90.60;;;;;;5084898;28;20632;-81
2022/07/08 08:28:37;;;;;;;3.80;1.57;;;19.10;90.70;;;;;;5087548;28;20718;-80
2022/07/08 08:31:04;;;;;;;3.13;1.50;;;19.10;90.70;;;;;;5087363;28;20659;-81
2022/07/08 08:33:31;;;;;;;1.77;1.17;;;19.10;90.70;;;;;;4695386;28;10000698;-80
2022/07/08 08:35:58;;;;;;;3.87;1.60;;;19.20;91.10;;;;;;5010855;28;20244;-81
2022/07/08 08:38:24;;;;;;;3.40;1.93;;;19.20;91.10;;;;;;5013099;28;20639;-80
2022/07/08 08:40:57;;;;;;;3.23;1.40;;;19.30;90.60;;;;;;5010918;28;20651;-80
2022/07/08 08:43:24;;;;;;;4.33;1.60;;;19.20;90.60;;;;;;5006762;28;20770;-82
2022/07/08 08:45:53;;;;;;;4.37;1.40;;;19.10;90.60;;;;;;5013276;28;20627;-81
2022/07/08 08:48:23;;;;;;;6.87;1.87;;;19.10;90.70;;;;;;5009819;28;20636;-80
2022/07/08 08:50:54;;;;;;;4.97;1.90;;;19.10;90.80;;;;;;5006196;28;20655;-80
2022/07/08 08:53:25;;;;;;;2.33;1.33;;;19.10;90.80;;;;;;5008877;28;20642;-80
2022/07/08 08:55:55;;;;;;;5.30;1.70;;;19.10;90.90;;;;;;5007171;28;20615;-80
2022/07/08 08:58:22;;;;;;;2.53;1.20;;;19.20;90.60;;;;;;5009687;28;21101;-81
2022/07/08 09:00:49;;;;;;;5.00;1.53;;;19.30;90.80;;;;;;5008122;28;20640;-81
2022/07/08 09:03:17;;;;;;;4.43;1.57;;;19.40;91.20;;;;;;5009015;28;20640;-80
2022/07/08 09:05:44;;;;;;;6.93;1.57;;;19.60;90.50;;;;;;5005743;28;20623;-81
2022/07/08 09:08:10;;;;;;;3.07;1.80;;;19.70;90.40;;;;;;5010649;28;20628;-80
2022/07/08 09:10:37;;;;;;;3.00;1.33;;;19.80;89.60;;;;;;5007367;28;20670;-80
2022/07/08 09:13:07;;;;;;;4.63;1.03;;;19.80;89.60;;;;;;5007018;28;20644;-80
2022/07/08 09:15:36;;;;;;;2.93;1.33;;;20.00;90.40;;;;;;5003073;28;20654;-80
2022/07/08 09:18:06;;;;;;;4.73;1.53;;;20.20;88.40;;;;;;5007271;28;20675;-79
2022/07/08 09:20:44;;;;;;;4.07;1.80;;;20.40;89.00;;;;;;5009937;28;20643;-79
2022/07/08 09:23:17;;;;;;;4.27;1.30;;;20.60;87.60;;;;;;5008658;28;20611;-80
2022/07/08 09:25:47;;;;;;;2.00;1.10;;;20.50;87.10;;;;;;5007182;28;20655;-80
2022/07/08 09:28:14;;;;;;;4.53;1.63;;;20.50;87.50;;;;;;5007127;28;20626;-80
2022/07/08 09:30:43;;;;;;;2.53;1.10;;;20.60;87.90;;;;;;5007916;28;20690;-80
2022/07/08 09:33:12;;;;;;;3.60;1.07;;;20.80;88.40;;;;;;5007278;28;20627;-80
2022/07/08 09:35:43;;;;;;;2.30;1.33;;;21.00;88.60;;;;;;5010364;28;20639;-80
2022/07/08 09:38:10;;;;;;;3.47;1.60;;;21.10;87.10;;;;;;5004663;28;20655;-80
2022/07/08 09:40:38;;;;;;;4.43;1.27;;;21.20;86.90;;;;;;5010270;28;20655;-80
2022/07/08 09:43:13;;;;;;;3.13;1.43;;;21.20;87.90;;;;;;5007752;28;21283;-80
2022/07/08 09:45:41;;;;;;;3.23;1.47;;;21.20;85.50;;;;;;5006803;28;20626;-80
2022/07/08 09:48:09;;;;;;;4.17;2.17;;;21.10;84.50;;;;;;5009617;28;20674;-81
2022/07/08 09:50:39;;;;;;;2.03;1.10;;;21.00;83.80;;;;;;5005493;28;20655;-80
2022/07/08 09:53:18;;;;;;;2.70;1.60;;;20.90;84.10;;;;;;5004700;28;21230;-81
2022/07/08 09:55:47;;;;;;;2.03;1.23;;;20.80;85.40;;;;;;5002582;28;21280;-80
2022/07/08 09:58:15;;;;;;;4.70;1.57;;;20.80;86.40;;;;;;5006686;28;20734;-80
2022/07/08 10:00:43;;;;;;;8.13;1.60;;;20.70;86.90;;;;;;5009326;28;20659;-80
2022/07/08 10:03:11;;;;;;;2.87;1.37;;;20.60;87.20;;;;;;5009648;28;20637;-81
2022/07/08 10:05:38;;;;;;;2.30;1.20;;;20.70;87.80;;;;;;5006333;28;20627;-81
2022/07/08 10:08:05;;;;;;;3.47;1.30;;;20.70;84.00;;;;;;5005762;28;21183;-79
2022/07/08 10:10:35;;;;;;;4.90;1.63;;;20.80;85.90;;;;;;5007671;28;20655;-79
2022/07/08 10:13:03;;;;;;;4.83;1.17;;;20.80;83.90;;;;;;5010260;28;20771;-79
2022/07/08 10:15:33;;;;;;;4.53;1.37;;;20.70;84.40;;;;;;5002830;28;21196;-80
2022/07/08 10:18:05;;;;;;;3.13;1.73;;;20.60;85.80;;;;;;5007571;28;20659;-80
2022/07/08 10:20:34;;;;;;;2.67;1.30;;;20.70;86.40;;;;;;5005904;28;20651;-79
2022/07/08 10:23:07;;;;;;;3.50;1.60;;;20.80;86.60;;;;;;5009002;28;20627;-79
2022/07/08 10:25:36;;;;;;;2.40;1.57;;;20.80;85.80;;;;;;5006136;28;20650;-79
2022/07/08 10:28:08;;;;;;;3.67;1.20;;;20.70;83.90;;;;;;5006084;28;20623;-79
2022/07/08 10:30:52;;;;;;;2.27;1.70;;;20.80;85.90;;;;;;5006738;28;20671;-79
2022/07/08 10:33:24;;;;;;;3.60;1.73;;;20.70;85.00;;;;;;5009011;28;20706;-79
2022/07/08 10:36:06;;;;;;;2.87;1.57;;;20.90;86.00;;;;;;5009764;28;20634;-79
2022/07/08 10:38:37;;;;;;;5.97;1.40;;;20.90;85.80;;;;;;5001966;28;20655;-79
2022/07/08 10:41:08;;;;;;;4.13;1.30;;;21.10;85.80;;;;;;5004554;28;20663;-79
2022/07/08 10:43:35;;;;;;;4.00;1.80;;;21.30;85.60;;;;;;5007103;28;21096;-79
2022/07/08 10:46:15;;;;;;;3.13;1.30;;;21.50;86.10;;;;;;5004576;28;20631;-79
2022/07/08 10:48:49;;;;;;;3.83;1.20;;;21.60;84.70;;;;;;5007653;28;20614;-80
2022/07/08 10:51:56;;;;;;;6.03;1.60;;;21.80;84.50;;;;;;5006053;28;20677;-79
2022/07/08 10:54:32;;;;;;;9.73;1.73;;;21.80;82.40;;;;;;5004444;28;20627;-80
2022/07/08 10:57:02;;;;;;;2.10;1.00;;;21.70;82.90;;;;;;5008534;28;20651;-80
2022/07/08 10:59:32;;;;;;;6.77;1.70;;;21.80;82.40;;;;;;5009865;28;20659;-80
2022/07/08 11:02:02;;;;;;;3.57;1.30;;;21.90;83.00;;;;;;5011044;28;20616;-80
2022/07/08 11:04:45;;;;;;;3.00;1.00;;;22.00;83.60;;;;;;5002216;28;20762;-80
2022/07/08 11:07:29;;;;;;;3.97;1.67;;;22.00;81.20;;;;;;5005717;28;21581;-80
2022/07/08 11:10:04;;;;;;;4.50;1.20;;;22.00;81.70;;;;;;5006697;28;20670;-80
2022/07/08 11:12:33;;;;;;;6.40;1.30;;;22.10;81.50;;;;;;5009688;28;20586;-80
2022/07/08 11:15:02;;;;;;;3.33;1.37;;;22.20;81.10;;;;;;5007447;28;20632;-80
2022/07/08 11:17:31;;;;;;;2.63;1.17;;;22.30;81.00;;;;;;5006019;28;20668;-80
2022/07/08 11:20:00;;;;;;;7.50;1.43;;;22.70;79.70;;;;;;5009621;28;20745;-80
2022/07/08 11:22:28;;;;;;;1.77;1.20;;;23.00;80.40;;;;;;5003439;28;20919;-80
2022/07/08 11:24:58;;;;;;;2.63;1.03;;;23.10;77.30;;;;;;5005412;28;20662;-80
2022/07/08 11:27:26;;;;;;;2.30;1.23;;;23.10;76.10;;;;;;5005208;28;20612;-80
2022/07/08 11:29:55;;;;;;;4.33;1.80;;;23.00;77.40;;;;;;5008139;28;20671;-80
2022/07/08 11:32:24;;;;;;;3.83;1.53;;;23.20;78.00;;;;;;5006787;28;20635;-80
2022/07/08 11:34:52;;;;;;;2.40;1.00;;;23.20;75.80;;;;;;5012372;28;20631;-80
2022/07/08 11:37:19;;;;;;;2.90;1.13;;;23.30;75.70;;;;;;5010820;28;20682;-80
2022/07/08 11:39:46;;;;;;;2.73;1.30;;;23.50;76.40;;;;;;5013025;28;21385;-80
2022/07/08 11:42:14;;;;;;;6.60;1.93;;;23.90;77.10;;;;;;5008421;28;20630;-80
2022/07/08 11:44:41;;;;;;;6.90;1.47;;;24.30;75.80;;;;;;5008265;28;20623;-80
2022/07/08 11:47:14;;;;;;;2.80;0.97;;;24.60;73.50;;;;;;5013546;28;20642;-80
2022/07/08 11:49:43;;;;;;;3.50;1.20;;;25.10;72.90;;;;;;5010746;28;20659;-80
2022/07/08 11:52:10;;;;;;;2.30;1.00;;;25.10;70.40;;;;;;5006129;28;20711;-80
2022/07/08 11:54:38;;;;;;;2.37;1.10;;;25.30;71.00;;;;;;5011529;28;20642;-80
2022/07/08 11:57:05;;;;;;;2.70;1.13;;;25.60;70.90;;;;;;5011198;28;20643;-80
2022/07/08 11:59:34;;;;;;;2.70;1.07;;;25.60;68.10;;;;;;5008791;28;20670;-80
2022/07/08 12:02:03;;;;;;;3.43;1.33;;;25.70;67.20;;;;;;5012803;28;20635;-80
2022/07/08 12:04:32;;;;;;;2.73;1.03;;;25.80;68.10;;;;;;5008394;28;20620;-80
2022/07/08 12:07:00;;;;;;;2.50;1.20;;;26.30;69.50;;;;;;5011624;28;20710;-80
2022/07/08 12:09:28;;;;;;;2.90;1.03;;;26.70;67.30;;;;;;5009383;28;20632;-80
2022/07/08 12:11:57;;;;;;;4.73;1.57;;;27.00;66.30;;;;;;5017699;28;21006;-80
2022/07/08 12:14:27;;;;;;;3.90;1.10;;;27.00;63.90;;;;;;5008229;28;21244;-80
2022/07/08 12:16:56;;;;;;;2.80;1.20;;;26.90;63.70;;;;;;5007540;28;20619;-79
2022/07/08 12:19:27;;;;;;;4.30;1.40;;;26.90;64.10;;;;;;5008944;28;20702;-80
2022/07/08 12:21:56;;;;;;;3.73;1.30;;;27.10;63.30;;;;;;5010748;28;20628;-80
2022/07/08 12:24:25;;;;;;;5.67;1.20;;;27.00;62.30;;;;;;5010884;28;21174;-80
2022/07/08 12:26:55;;;;;;;4.07;1.50;;;26.60;61.70;;;;;;5012157;28;21034;-80
2022/07/08 12:29:22;;;;;;;1.87;0.97;;;26.50;62.30;;;;;;5010614;28;21190;-80
2022/07/08 12:31:48;;;;;;;2.53;1.37;;;26.60;62.70;;;;;;5008359;28;20636;-80
2022/07/08 12:34:17;;;;;;;6.20;1.10;;;26.70;61.60;;;;;;5011723;28;20622;-80
2022/07/08 12:36:44;;;;;;;5.00;1.10;;;27.10;63.40;;;;;;5009857;28;20984;-80
2022/07/08 12:39:13;;;;;;;4.13;1.43;;;27.20;59.60;;;;;;5007179;28;21047;-80
2022/07/08 12:41:41;;;;;;;2.43;1.37;;;27.30;60.30;;;;;;5007875;28;20635;-80
2022/07/08 12:44:33;;;;;;;1.90;0.97;;;27.50;59.80;;;;;;5006509;28;20627;-79
2022/07/08 12:47:01;;;;;;;8.00;1.70;;;27.50;58.60;;;;;;5011712;28;20631;-80
2022/07/08 12:49:29;;;;;;;3.40;1.20;;;28.00;59.40;;;;;;5008697;28;21241;-80